createdAt,value
2022-12-06T00:01:44.322Z,7.91
2022-12-06T00:04:16.188Z,7.62
2022-12-06T00:06:48.062Z,7.78
2022-12-06T00:09:20.447Z,7.74
2022-12-06T00:11:50.708Z,7.83
2022-12-06T00:14:21.899Z,7.85
2022-12-06T00:16:51.930Z,7.67
2022-12-06T00:19:25.051Z,7.65
2022-12-06T00:21:54.394Z,7.66
2022-12-06T00:24:24.770Z,7.90
2022-12-06T00:26:55.084Z,7.89
2022-12-06T00:29:25.648Z,7.77
2022-12-06T00:31:54.479Z,7.63
2022-12-06T00:34:23.233Z,7.31
2022-12-06T00:36:51.874Z,7.26
2022-12-06T00:39:20.650Z,7.27
2022-12-06T00:41:49.645Z,7.27
2022-12-06T00:44:20.627Z,7.38
2022-12-06T00:46:49.279Z,7.34
2022-12-06T00:49:18.497Z,7.34
2022-12-06T00:51:47.210Z,7.40
2022-12-06T00:54:17.080Z,7.54
2022-12-06T00:56:45.882Z,7.69
2022-12-06T00:59:14.762Z,7.72
2022-12-06T01:01:45.026Z,7.83
2022-12-06T01:04:14.004Z,7.75
2022-12-06T01:06:42.964Z,7.94
2022-12-06T01:09:13.279Z,7.44
2022-12-06T01:11:41.697Z,7.78
2022-12-06T01:14:10.079Z,7.82
2022-12-06T01:16:38.445Z,7.70
2022-12-06T01:19:09.201Z,7.84
2022-12-06T01:21:37.506Z,7.89
2022-12-06T01:24:06.617Z,8.00
2022-12-06T01:26:36.416Z,7.83
2022-12-06T01:29:05.365Z,8.03
2022-12-06T01:31:38.764Z,7.70
2022-12-06T01:34:15.043Z,7.72
2022-12-06T01:36:43.935Z,7.65
2022-12-06T01:39:12.777Z,7.49
2022-12-06T01:41:41.643Z,7.71
2022-12-06T01:44:45.494Z,7.75
2022-12-06T01:47:19.948Z,7.83
2022-12-06T01:49:55.729Z,7.91
2022-12-06T01:52:28.470Z,7.70
2022-12-06T01:54:57.678Z,7.70
2022-12-06T01:57:26.617Z,7.86
2022-12-06T01:59:55.247Z,7.90
2022-12-06T02:02:23.711Z,7.73
2022-12-06T02:04:54.450Z,7.74
2022-12-06T02:07:24.571Z,7.96
2022-12-06T02:09:53.198Z,8.16
2022-12-06T02:12:21.843Z,7.94
2022-12-06T02:14:55.294Z,7.95
2022-12-06T02:17:38.405Z,8.05
2022-12-06T02:20:24.133Z,8.11
2022-12-06T02:23:39.484Z,8.16
2022-12-06T02:26:33.906Z,8.19
2022-12-06T02:29:51.493Z,8.24
2022-12-06T02:32:28.033Z,8.14
2022-12-06T02:35:04.865Z,7.98
2022-12-06T02:37:37.426Z,7.94
2022-12-06T02:40:10.730Z,7.84
2022-12-06T02:42:45.971Z,7.88
2022-12-06T02:45:19.793Z,7.85
2022-12-06T02:47:51.494Z,7.89
2022-12-06T02:50:25.498Z,7.90
2022-12-06T02:52:57.626Z,7.91
2022-12-06T02:55:27.699Z,7.73
2022-12-06T02:57:57.596Z,7.91
2022-12-06T03:00:36.908Z,7.80
2022-12-06T03:03:36.704Z,7.70
2022-12-06T03:06:36.616Z,7.71
2022-12-06T03:09:22.655Z,7.54
2022-12-06T03:11:59.471Z,7.67
2022-12-06T03:14:33.123Z,7.47
2022-12-06T03:17:13.026Z,7.39
2022-12-06T03:19:43.414Z,7.21
2022-12-06T03:22:20.173Z,7.32
2022-12-06T03:24:49.087Z,7.01
2022-12-06T03:27:20.921Z,7.02
2022-12-06T03:29:55.315Z,7.03
2022-12-06T03:32:29.421Z,7.10
2022-12-06T03:35:06.244Z,7.18
2022-12-06T03:37:36.716Z,7.32
2022-12-06T03:40:12.907Z,7.31
2022-12-06T03:42:41.508Z,7.24
2022-12-06T03:45:13.152Z,6.83
2022-12-06T03:47:49.415Z,6.78
2022-12-06T03:50:25.362Z,6.86
2022-12-06T03:52:54.767Z,6.99
2022-12-06T03:55:23.573Z,7.21
2022-12-06T03:57:51.916Z,7.31
2022-12-06T04:00:21.256Z,7.30
2022-12-06T04:02:49.696Z,6.97
2022-12-06T04:05:19.615Z,7.04
2022-12-06T04:07:48.419Z,7.30
2022-12-06T04:10:17.025Z,7.16
2022-12-06T04:13:03.439Z,7.27
2022-12-06T04:15:34.675Z,7.00
2022-12-06T04:18:13.448Z,7.04
2022-12-06T04:21:04.200Z,7.41
2022-12-06T04:23:35.906Z,7.35
2022-12-06T04:26:06.812Z,7.10
2022-12-06T04:28:52.807Z,7.13
2022-12-06T04:31:38.904Z,7.09
2022-12-06T04:34:24.852Z,7.08
2022-12-06T04:37:12.574Z,6.96
2022-12-06T04:39:40.990Z,7.16
2022-12-06T04:42:26.964Z,7.17
2022-12-06T04:44:55.418Z,7.33
2022-12-06T04:47:24.249Z,7.12
2022-12-06T04:49:53.238Z,7.15
2022-12-06T04:52:23.016Z,7.38
2022-12-06T04:54:51.486Z,7.33
2022-12-06T04:57:20.908Z,7.34
2022-12-06T04:59:50.280Z,7.52
2022-12-06T05:02:18.716Z,7.52
2022-12-06T05:04:47.212Z,7.53
2022-12-06T05:07:15.631Z,7.61
2022-12-06T05:09:45.362Z,7.63
2022-12-06T05:12:13.857Z,7.41
2022-12-06T05:14:42.140Z,7.13
2022-12-06T05:17:10.479Z,7.22
2022-12-06T05:19:38.806Z,7.24
2022-12-06T05:22:07.099Z,7.19
2022-12-06T05:24:35.860Z,7.28
2022-12-06T05:27:05.601Z,7.43
2022-12-06T05:29:34.095Z,7.53
2022-12-06T05:32:02.551Z,6.86
2022-12-06T05:34:30.917Z,7.43
2022-12-06T05:36:59.236Z,7.49
2022-12-06T05:39:27.516Z,7.37
2022-12-06T05:41:56.027Z,7.38
2022-12-06T05:44:25.719Z,7.17
2022-12-06T05:46:53.981Z,7.23
2022-12-06T05:49:22.599Z,6.93
2022-12-06T05:51:52.078Z,7.06
2022-12-06T05:54:21.105Z,7.21
2022-12-06T05:56:50.732Z,7.07
2022-12-06T05:59:19.432Z,7.03
2022-12-06T06:01:49.138Z,7.07
2022-12-06T06:04:20.028Z,7.03
2022-12-06T06:06:48.301Z,6.94
2022-12-06T06:09:16.612Z,7.08
2022-12-06T06:11:44.950Z,6.52
2022-12-06T06:14:14.907Z,7.16
2022-12-06T06:16:43.252Z,7.26
2022-12-06T06:19:13.138Z,7.10
2022-12-06T06:21:41.573Z,6.93
2022-12-06T06:24:10.106Z,6.95
2022-12-06T06:26:38.495Z,7.19
2022-12-06T06:29:06.811Z,7.35
2022-12-06T06:31:35.501Z,7.37
2022-12-06T06:34:04.272Z,7.15
2022-12-06T06:36:34.428Z,7.19
2022-12-06T06:39:02.815Z,6.89
2022-12-06T06:41:31.145Z,6.94
2022-12-06T06:43:59.441Z,6.75
2022-12-06T06:46:28.018Z,6.61
2022-12-06T06:48:56.712Z,6.74
2022-12-06T06:51:27.058Z,6.95
2022-12-06T06:53:56.736Z,6.95
2022-12-06T06:56:25.128Z,6.65
2022-12-06T06:58:54.308Z,7.03
2022-12-06T07:01:25.219Z,6.71
2022-12-06T07:03:53.547Z,6.85
2022-12-06T07:06:22.153Z,6.95
2022-12-06T07:08:50.735Z,7.09
2022-12-06T07:11:20.441Z,7.01
2022-12-06T07:13:52.657Z,6.82
2022-12-06T07:16:21.666Z,6.99
2022-12-06T07:18:50.219Z,6.86
2022-12-06T07:21:19.258Z,7.06
2022-12-06T07:23:47.695Z,7.35
2022-12-06T07:26:20.570Z,7.20
2022-12-06T07:28:51.336Z,7.11
2022-12-06T07:31:22.585Z,6.90
2022-12-06T07:33:54.499Z,7.15
2022-12-06T07:36:24.366Z,6.96
2022-12-06T07:38:54.574Z,7.06
2022-12-06T07:41:44.423Z,7.07
2022-12-06T07:44:39.618Z,6.96
2022-12-06T07:47:07.945Z,6.80
2022-12-06T07:49:36.557Z,7.01
2022-12-06T07:52:04.796Z,6.76
2022-12-06T07:54:33.333Z,6.88
2022-12-06T07:57:03.376Z,6.85
2022-12-06T07:59:31.734Z,6.78
2022-12-06T08:02:00.265Z,6.74
2022-12-06T08:04:28.727Z,6.66
2022-12-06T08:06:57.744Z,6.43
2022-12-06T08:09:26.841Z,6.51
2022-12-06T08:11:55.739Z,6.56
2022-12-06T08:14:25.998Z,6.22
2022-12-06T08:16:54.334Z,6.42
2022-12-06T08:19:23.430Z,6.35
2022-12-06T08:21:51.954Z,6.14
2022-12-06T08:24:20.304Z,5.94
2022-12-06T08:26:48.716Z,6.22
2022-12-06T08:29:17.582Z,6.06
2022-12-06T08:31:47.823Z,6.14
2022-12-06T08:34:17.759Z,6.00
2022-12-06T08:36:46.231Z,5.97
2022-12-06T08:39:16.383Z,6.06
2022-12-06T08:41:58.214Z,5.96
2022-12-06T08:44:29.163Z,5.76
2022-12-06T08:47:01.105Z,5.83
2022-12-06T08:49:31.598Z,5.76
2022-12-06T08:52:00.915Z,5.75
2022-12-06T08:54:30.427Z,5.75
2022-12-06T08:56:58.943Z,5.90
2022-12-06T08:59:27.310Z,5.71
2022-12-06T09:01:55.837Z,5.73
2022-12-06T09:04:25.793Z,5.88
2022-12-06T09:06:54.208Z,5.96
2022-12-06T09:09:22.571Z,5.82
2022-12-06T09:11:51.838Z,5.89
2022-12-06T09:14:22.231Z,6.08
2022-12-06T09:16:52.142Z,6.26
2022-12-06T09:19:21.680Z,6.43
2022-12-06T09:21:51.693Z,6.29
2022-12-06T09:24:21.105Z,6.42
2022-12-06T09:26:50.316Z,6.58
2022-12-06T09:29:19.847Z,6.67
2022-12-06T09:31:49.031Z,6.80
2022-12-06T09:34:18.557Z,7.07
2022-12-06T09:36:52.452Z,6.68
2022-12-06T09:39:26.258Z,6.93
2022-12-06T09:42:52.995Z,7.04
2022-12-06T09:45:38.044Z,6.97
2022-12-06T09:48:48.824Z,7.01
2022-12-06T09:51:40.162Z,6.98
2022-12-06T09:54:33.956Z,6.96
2022-12-06T09:57:09.786Z,6.97
2022-12-06T09:59:51.270Z,6.98
2022-12-06T10:02:37.747Z,7.24
2022-12-06T10:05:30.244Z,7.17
2022-12-06T10:08:11.653Z,7.17
2022-12-06T10:10:57.286Z,7.10
2022-12-06T10:13:48.443Z,7.39
2022-12-06T10:16:28.689Z,7.39
2022-12-06T10:19:18.054Z,7.62
2022-12-06T10:22:00.968Z,7.68
2022-12-06T10:25:00.438Z,7.80
2022-12-06T10:27:38.182Z,7.99
2022-12-06T10:30:11.656Z,8.02
2022-12-06T10:32:54.401Z,8.48
2022-12-06T10:35:43.388Z,8.28
2022-12-06T10:38:27.600Z,8.48
2022-12-06T10:41:07.271Z,8.64
2022-12-06T10:43:50.978Z,8.99
2022-12-06T10:46:45.444Z,9.10
2022-12-06T10:49:26.431Z,9.20
2022-12-06T10:52:01.333Z,9.49
2022-12-06T10:54:38.825Z,9.47
2022-12-06T10:57:16.754Z,9.50
2022-12-06T10:59:51.784Z,9.51
2022-12-06T11:02:29.584Z,9.50
2022-12-06T11:05:03.065Z,9.55
2022-12-06T11:07:39.271Z,9.40
2022-12-06T11:10:20.581Z,9.42
2022-12-06T11:12:54.975Z,9.64
2022-12-06T11:15:30.862Z,9.62
2022-12-06T11:18:07.016Z,9.85
2022-12-06T11:20:43.382Z,10.07
2022-12-06T11:23:20.788Z,10.19
2022-12-06T11:26:03.944Z,10.00
2022-12-06T11:28:38.959Z,10.24
2022-12-06T11:31:21.105Z,10.23
2022-12-06T11:33:49.868Z,10.24
2022-12-06T11:36:18.401Z,10.11
2022-12-06T11:38:47.093Z,9.55
2022-12-06T11:41:23.461Z,9.49
2022-12-06T11:43:53.573Z,9.31
2022-12-06T11:46:25.343Z,9.02
2022-12-06T11:48:54.945Z,9.04
2022-12-06T11:51:26.297Z,8.79
2022-12-06T11:54:08.964Z,8.99
2022-12-06T11:56:40.027Z,9.03
2022-12-06T11:59:26.386Z,9.41
2022-12-06T12:01:58.619Z,9.38
2022-12-06T12:04:35.385Z,9.84
2022-12-06T12:07:12.791Z,9.61
2022-12-06T12:09:53.389Z,9.95
2022-12-06T12:12:24.803Z,10.05
2022-12-06T12:14:59.683Z,9.93
2022-12-06T12:17:33.124Z,10.04
2022-12-06T12:20:06.701Z,9.86
2022-12-06T12:22:39.419Z,9.83
2022-12-06T12:25:27.582Z,10.03
2022-12-06T12:27:57.218Z,10.01
2022-12-06T12:30:36.227Z,10.28
2022-12-06T12:33:25.485Z,10.33
2022-12-06T12:35:58.761Z,10.07
2022-12-06T12:38:38.788Z,9.90
2022-12-06T12:41:25.510Z,10.24
2022-12-06T12:44:28.997Z,10.42
2022-12-06T12:46:55.568Z,10.27
2022-12-06T12:49:30.822Z,10.37
2022-12-06T12:52:02.009Z,10.28
2022-12-06T12:54:34.348Z,10.09
2022-12-06T12:57:12.391Z,10.08
2022-12-06T12:59:43.013Z,9.89
2022-12-06T13:02:23.904Z,10.15
2022-12-06T13:05:30.846Z,10.15
2022-12-06T13:07:50.601Z,10.27
2022-12-06T13:10:25.656Z,10.09
2022-12-06T13:12:59.568Z,10.20
2022-12-06T13:15:35.628Z,10.35
2022-12-06T13:18:12.805Z,10.26
2022-12-06T13:20:42.770Z,10.20
2022-12-06T13:23:16.040Z,10.17
2022-12-06T13:25:48.822Z,10.25
2022-12-06T13:28:23.652Z,10.23
2022-12-06T13:31:02.684Z,10.22
2022-12-06T13:33:36.527Z,10.06
2022-12-06T13:36:11.123Z,9.98
2022-12-06T13:38:41.765Z,10.19
2022-12-06T13:41:14.555Z,9.91
2022-12-06T13:43:52.000Z,10.07
2022-12-06T13:46:32.820Z,9.90
2022-12-06T13:49:06.058Z,10.02
2022-12-06T13:51:49.185Z,10.14
2022-12-06T13:54:34.541Z,10.38
2022-12-06T13:57:29.770Z,10.00
2022-12-06T13:59:58.615Z,9.78
2022-12-06T14:02:51.904Z,9.48
2022-12-06T14:06:06.112Z,9.33
2022-12-06T14:08:42.405Z,9.61
2022-12-06T14:11:23.263Z,9.76
2022-12-06T14:14:08.746Z,9.51
2022-12-06T14:16:42.651Z,9.51
2022-12-06T14:19:18.910Z,9.40
2022-12-06T14:21:55.774Z,9.66
2022-12-06T14:24:36.775Z,9.64
2022-12-06T14:27:11.502Z,9.61
2022-12-06T14:29:40.469Z,9.64
2022-12-06T14:32:09.663Z,9.76
2022-12-06T14:34:38.854Z,9.62
2022-12-06T14:37:22.998Z,9.58
2022-12-06T14:39:54.387Z,9.73
2022-12-06T14:42:41.028Z,9.83
2022-12-06T14:45:15.554Z,9.84
2022-12-06T14:47:45.987Z,9.82
2022-12-06T14:50:29.659Z,9.69
2022-12-06T14:53:05.551Z,9.74
2022-12-06T14:55:38.110Z,9.46
2022-12-06T14:58:23.348Z,9.56
2022-12-06T15:00:55.732Z,9.68
2022-12-06T15:03:29.882Z,9.45
2022-12-06T15:06:19.151Z,9.03
2022-12-06T15:08:55.080Z,9.01
2022-12-06T15:11:50.299Z,9.28
2022-12-06T15:14:22.077Z,9.06
2022-12-06T15:17:03.647Z,8.85
2022-12-06T15:19:36.017Z,8.74
2022-12-06T15:22:05.404Z,8.66
2022-12-06T15:24:34.249Z,8.97
2022-12-06T15:27:04.151Z,9.09
2022-12-06T15:29:32.609Z,9.02
2022-12-06T15:32:01.017Z,9.00
2022-12-06T15:34:32.357Z,8.60
2022-12-06T15:37:37.462Z,8.90
2022-12-06T15:39:51.240Z,9.18
2022-12-06T15:42:23.449Z,9.16
2022-12-06T15:44:52.645Z,9.12
2022-12-06T15:47:21.250Z,8.95
2022-12-06T15:49:51.968Z,8.92
2022-12-06T15:52:24.430Z,8.89
2022-12-06T15:54:53.489Z,8.90
2022-12-06T15:57:23.159Z,8.92
2022-12-06T15:59:54.229Z,8.80
2022-12-06T16:02:22.880Z,8.84
2022-12-06T16:04:51.984Z,8.57
2022-12-06T16:07:20.353Z,8.90
2022-12-06T16:09:49.328Z,8.79
2022-12-06T16:12:18.715Z,9.01
2022-12-06T16:14:48.366Z,9.05
2022-12-06T16:17:16.697Z,8.91
2022-12-06T16:20:02.818Z,8.71
2022-12-06T16:22:48.643Z,9.07
2022-12-06T16:25:16.961Z,8.59
2022-12-06T16:27:45.363Z,8.86
2022-12-06T16:30:17.347Z,8.91
2022-12-06T16:32:45.711Z,8.94
2022-12-06T16:35:13.925Z,9.05
2022-12-06T16:37:42.215Z,9.06
2022-12-06T16:40:19.829Z,9.01
2022-12-06T16:42:48.168Z,9.14
2022-12-06T16:45:18.648Z,9.01
2022-12-06T16:47:47.531Z,8.94
2022-12-06T16:50:23.654Z,8.83
2022-12-06T16:52:52.975Z,8.93
2022-12-06T16:55:21.936Z,8.49
2022-12-06T16:57:50.372Z,8.60
2022-12-06T17:00:21.066Z,8.70
2022-12-06T17:02:49.538Z,8.64
2022-12-06T17:05:21.551Z,8.42
2022-12-06T17:07:50.115Z,8.58
2022-12-06T17:10:19.952Z,8.55
2022-12-06T17:12:50.388Z,8.65
2022-12-06T17:15:22.494Z,8.46
2022-12-06T17:17:50.852Z,8.62
2022-12-06T17:20:20.452Z,8.55
2022-12-06T17:22:49.075Z,8.70
2022-12-06T17:25:18.104Z,8.65
2022-12-06T17:27:46.695Z,8.86
2022-12-06T17:30:20.036Z,8.73
2022-12-06T17:32:48.748Z,8.44
2022-12-06T17:35:17.449Z,8.80
2022-12-06T17:37:45.892Z,8.73
2022-12-06T17:40:15.668Z,8.55
2022-12-06T17:43:01.081Z,8.77
2022-12-06T17:45:31.020Z,8.87
2022-12-06T17:47:59.460Z,8.57
2022-12-06T17:50:28.060Z,8.72
2022-12-06T17:52:56.341Z,8.72
2022-12-06T17:55:24.671Z,8.87
2022-12-06T17:57:53.078Z,8.84
2022-12-06T18:00:22.242Z,8.85
2022-12-06T18:02:52.039Z,8.68
2022-12-06T18:05:20.360Z,8.75
2022-12-06T18:07:48.749Z,8.56
2022-12-06T18:10:17.402Z,8.59
2022-12-06T18:12:45.700Z,8.65
2022-12-06T18:15:27.927Z,8.53
2022-12-06T18:17:57.601Z,8.49
2022-12-06T18:20:26.251Z,8.50
2022-12-06T18:22:54.561Z,8.28
2022-12-06T18:25:23.033Z,8.29
2022-12-06T18:27:51.358Z,8.21
2022-12-06T18:30:19.910Z,8.21
2022-12-06T18:32:48.223Z,8.19
2022-12-06T18:35:18.014Z,7.99
2022-12-06T18:37:46.736Z,7.89
2022-12-06T18:40:15.552Z,7.53
2022-12-06T18:42:44.033Z,7.72
2022-12-06T18:45:13.079Z,7.34
2022-12-06T18:47:41.523Z,7.15
2022-12-06T18:50:10.633Z,6.98
2022-12-06T18:52:40.727Z,7.33
2022-12-06T18:55:10.193Z,7.43
2022-12-06T18:57:38.867Z,7.42
2022-12-06T19:00:09.799Z,7.42
2022-12-06T19:02:38.546Z,7.53
2022-12-06T19:05:07.879Z,7.22
2022-12-06T19:07:36.256Z,7.62
2022-12-06T19:10:10.370Z,7.38
2022-12-06T19:12:41.344Z,7.35
2022-12-06T19:15:11.355Z,7.74
2022-12-06T19:17:39.897Z,7.30
2022-12-06T19:20:10.002Z,7.46
2022-12-06T19:22:38.346Z,7.37
2022-12-06T19:25:08.870Z,7.25
2022-12-06T19:27:37.548Z,7.56
2022-12-06T19:30:08.890Z,7.54
2022-12-06T19:32:37.444Z,7.30
2022-12-06T19:35:08.638Z,7.60
2022-12-06T19:37:37.499Z,7.52
2022-12-06T19:40:09.738Z,7.44
2022-12-06T19:42:55.414Z,7.45
2022-12-06T19:45:25.473Z,7.39
2022-12-06T19:47:53.829Z,7.46
2022-12-06T19:50:22.374Z,7.56
2022-12-06T19:52:50.735Z,7.61
2022-12-06T19:55:20.428Z,7.48
2022-12-06T19:57:49.205Z,7.42
2022-12-06T20:00:22.605Z,7.36
2022-12-06T20:02:51.451Z,7.35
2022-12-06T20:05:19.852Z,7.14
2022-12-06T20:07:48.268Z,7.13
2022-12-06T20:10:16.831Z,7.09
2022-12-06T20:12:47.601Z,7.54
2022-12-06T20:15:16.317Z,7.53
2022-12-06T20:17:44.659Z,7.57
2022-12-06T20:20:13.137Z,7.25
2022-12-06T20:22:41.467Z,7.54
2022-12-06T20:25:11.111Z,7.02
2022-12-06T20:27:55.992Z,7.40
2022-12-06T20:30:25.809Z,7.12
2022-12-06T20:32:54.372Z,7.03
2022-12-06T20:35:24.086Z,7.19
2022-12-06T20:37:52.607Z,7.32
2022-12-06T20:40:24.466Z,7.20
2022-12-06T20:42:55.685Z,6.99
2022-12-06T20:45:25.375Z,7.19
2022-12-06T20:47:54.388Z,7.31
2022-12-06T20:50:23.444Z,7.38
2022-12-06T20:52:51.756Z,7.41
2022-12-06T20:55:20.367Z,7.54
2022-12-06T20:57:48.702Z,7.53
2022-12-06T21:00:18.429Z,7.58
2022-12-06T21:02:48.276Z,7.74
2022-12-06T21:05:18.831Z,7.86
2022-12-06T21:07:49.780Z,7.52
2022-12-06T21:10:18.365Z,7.83
2022-12-06T21:12:46.622Z,7.91
2022-12-06T21:15:15.016Z,7.93
2022-12-06T21:17:43.312Z,7.78
2022-12-06T21:20:13.564Z,7.92
2022-12-06T21:22:42.000Z,7.63
2022-12-06T21:25:10.803Z,7.79
2022-12-06T21:27:39.324Z,7.74
2022-12-06T21:30:09.508Z,7.80
2022-12-06T21:32:37.850Z,7.86
2022-12-06T21:35:07.369Z,7.82
2022-12-06T21:37:37.124Z,7.80
2022-12-06T21:40:07.021Z,7.85
2022-12-06T21:42:35.598Z,7.80
2022-12-06T21:45:04.006Z,7.80
2022-12-06T21:47:32.437Z,7.52
2022-12-06T21:50:01.040Z,7.79
2022-12-06T21:52:29.721Z,7.69
2022-12-06T21:54:59.336Z,7.41
2022-12-06T21:57:27.682Z,7.47
2022-12-06T21:59:55.923Z,7.13
2022-12-06T22:02:24.244Z,7.44
2022-12-06T22:04:53.091Z,7.39
2022-12-06T22:07:21.564Z,7.52
2022-12-06T22:09:50.224Z,7.30
2022-12-06T22:12:19.982Z,7.39
2022-12-06T22:14:48.945Z,7.57
2022-12-06T22:17:17.328Z,7.29
2022-12-06T22:19:45.746Z,7.60
2022-12-06T22:22:14.320Z,7.60
2022-12-06T22:24:42.570Z,7.43
2022-12-06T22:27:10.839Z,7.58
2022-12-06T22:29:40.530Z,7.60
2022-12-06T22:32:08.904Z,7.69
2022-12-06T22:34:37.148Z,7.60
2022-12-06T22:37:05.624Z,7.73
2022-12-06T22:39:33.944Z,7.54
2022-12-06T22:42:02.391Z,7.70
2022-12-06T22:44:30.711Z,7.40
2022-12-06T22:47:00.536Z,7.53
2022-12-06T22:49:29.092Z,7.29
2022-12-06T22:51:57.373Z,7.36
2022-12-06T22:54:25.700Z,7.31
2022-12-06T22:56:54.079Z,7.23
2022-12-06T22:59:23.018Z,7.12
2022-12-06T23:01:51.545Z,7.00
2022-12-06T23:04:21.283Z,6.47
2022-12-06T23:06:49.687Z,6.81
2022-12-06T23:09:18.228Z,6.72
2022-12-06T23:11:46.599Z,6.66
2022-12-06T23:14:16.152Z,6.55
2022-12-06T23:16:45.496Z,6.48
2022-12-06T23:19:13.967Z,6.41
2022-12-06T23:21:43.825Z,6.07
2022-12-06T23:24:14.014Z,6.33
2022-12-06T23:26:45.454Z,6.12
2022-12-06T23:29:14.702Z,5.95
2022-12-06T23:31:45.615Z,5.99
2022-12-06T23:34:18.475Z,6.43
2022-12-06T23:36:48.247Z,6.26
2022-12-06T23:39:17.725Z,6.36
2022-12-06T23:41:46.291Z,6.45
2022-12-06T23:44:14.880Z,6.25
2022-12-06T23:46:45.899Z,6.22
2022-12-06T23:49:18.295Z,6.12
2022-12-06T23:51:48.837Z,6.04
2022-12-06T23:54:18.955Z,6.22
2022-12-06T23:56:47.767Z,6.13
2022-12-06T23:59:17.403Z,6.21
